Time;durP1;ratioP1;P1;durP2;ratioP2;P2;SDS_P1;SDS_P2;PMS_P1;PMS_P2;Temp;Humidity;BMP_temperature;BMP_pressure;BME280_temperature;BME280_humidity;BME280_pressure;Samples;Min_cycle;Max_cycle;Signal;HPM_P1;HPM_P2
2022/04/15 00:00:06;;;;;;;;;3.00;3.00;;;;;18.83;77.93;102093.56;5039506;28;45470;-81
2022/04/15 00:02:32;;;;;;;;;5.25;4.00;;;;;18.88;78.31;102098.09;5057954;28;45205;-82
2022/04/15 00:04:58;;;;;;;;;5.00;4.00;;;;;18.86;77.98;102104.16;5058478;28;45179;-83
2022/04/15 00:07:24;;;;;;;;;3.00;3.00;;;;;18.83;77.85;102101.44;5057896;28;45538;-82
2022/04/15 00:09:50;;;;;;;;;6.00;4.00;;;;;18.80;77.94;102110.09;5059657;28;45792;-81
2022/04/15 00:12:27;;;;;;;;;4.50;3.00;;;;;18.79;78.05;102108.31;5058896;28;45252;-82
2022/04/15 00:14:54;;;;;;;;;4.00;4.00;;;;;18.79;78.60;102105.69;5057940;28;45489;-82
2022/04/15 00:17:20;;;;;;;;;3.00;3.00;;;;;18.79;78.51;102110.94;5057185;28;45479;-82
2022/04/15 00:19:47;;;;;;;;;6.00;3.50;;;;;18.72;78.64;102098.47;5057532;28;45269;-81
2022/04/15 00:22:13;;;;;;;;;2.00;2.00;;;;;18.78;78.66;102110.91;5057567;28;45256;-81
2022/04/15 00:24:38;;;;;;;;;5.75;4.75;;;;;18.80;78.77;102109.19;5057868;28;45578;-81
2022/04/15 00:27:04;;;;;;;;;4.00;4.00;;;;;18.81;79.00;102111.88;5057091;28;45740;-82
2022/04/15 00:29:30;;;;;;;;;4.75;4.00;;;;;18.75;78.58;102098.56;5057543;28;45292;-79
2022/04/15 00:31:56;;;;;;;;;4.00;4.00;;;;;18.71;78.46;102100.19;5057977;28;45844;-82
2022/04/15 00:34:21;;;;;;;;;4.75;3.00;;;;;18.62;78.40;102085.91;5057569;28;45525;-80
2022/04/15 00:36:47;;;;;;;;;4.00;4.00;;;;;18.60;78.55;102080.59;5039211;28;47504;-80
2022/04/15 00:39:13;;;;;;;;;5.75;5.00;;;;;18.62;78.98;102085.91;5057381;28;45391;-83
2022/04/15 00:41:43;;;;;;;;;5.00;3.50;;;;;18.58;78.84;102090.16;5057543;28;45489;-80
2022/04/15 00:44:08;;;;;;;;;4.25;4.00;;;;;18.62;79.28;102104.28;5057451;28;45236;-79
2022/04/15 00:46:34;;;;;;;;;4.00;4.00;;;;;18.64;79.83;102108.72;5057094;28;45474;-79
2022/04/15 00:48:59;;;;;;;;;4.25;4.00;;;;;18.63;80.67;102104.31;5057454;28;45281;-78
2022/04/15 00:51:25;;;;;;;;;6.25;6.25;;;;;18.61;81.25;102105.13;5055713;28;45190;-77
2022/04/15 00:53:53;;;;;;;;;4.75;4.75;;;;;18.57;82.59;102106.75;5057412;28;45626;-80
2022/04/15 00:56:22;;;;;;;;;6.25;6.00;;;;;18.49;83.24;102102.97;5038844;28;47775;-81
2022/04/15 00:58:50;;;;;;;;;7.00;7.00;;;;;18.45;83.58;102101.09;5057003;28;45705;-82
2022/04/15 01:01:16;;;;;;;;;9.75;7.75;;;;;18.37;84.14;102092.97;5056786;28;45914;-82
2022/04/15 01:03:43;;;;;;;;;11.50;7.50;;;;;18.43;84.12;102106.28;5057291;28;45592;-81
2022/04/15 01:06:11;;;;;;;;;7.25;6.50;;;;;18.42;84.40;102109.72;5038563;28;47850;-82
2022/04/15 01:08:39;;;;;;;;;8.75;8.75;;;;;18.39;84.64;102109.66;5056612;28;45485;-81
2022/04/15 01:11:06;;;;;;;;;9.25;8.00;;;;;18.37;85.36;102103.47;5056705;28;45233;-82
2022/04/15 01:13:35;;;;;;;;;10.00;9.25;;;;;18.32;85.64;102108.56;5057120;28;45430;-80
2022/04/15 01:16:02;;;;;;;;;11.50;8.25;;;;;18.24;86.76;102103.03;5038443;28;47780;-79
2022/04/15 01:18:28;;;;;;;;;10.25;7.00;;;;;18.24;87.28;102110.03;5056942;28;45408;-82
2022/04/15 01:20:53;;;;;;;;;13.00;11.25;;;;;18.16;87.30;102103.63;5057098;28;45419;-82
2022/04/15 01:23:20;;;;;;;;;9.50;9.50;;;;;18.16;88.86;102114.09;5057103;28;45427;-82
2022/04/15 01:25:46;;;;;;;;;11.75;10.00;;;;;18.12;89.02;102114.84;5056659;28;45615;-80
2022/04/15 01:28:16;;;;;;;;;13.50;9.50;;;;;18.03;89.63;102104.94;5056005;28;45544;-80
2022/04/15 01:30:43;;;;;;;;;10.00;9.75;;;;;18.02;89.59;102105.75;5056600;28;45239;-80
2022/04/15 01:33:08;;;;;;;;;11.75;9.50;;;;;17.99;90.26;102106.56;5056384;28;45190;-82
2022/04/15 01:35:34;;;;;;;;;12.00;11.00;;;;;17.96;90.22;102114.28;5056455;28;46428;-79
2022/04/15 01:38:02;;;;;;;;;14.75;11.50;;;;;17.90;90.84;102106.22;5056602;28;45249;-79
2022/04/15 01:40:28;;;;;;;;;12.75;10.50;;;;;17.87;90.78;102101.72;5056679;28;45401;-79
2022/04/15 01:42:53;;;;;;;;;10.75;9.75;;;;;17.85;91.86;102111.28;5056306;28;45565;-81
2022/04/15 01:45:19;;;;;;;;;10.50;10.50;;;;;17.81;91.66;102109.38;5037669;28;47917;-81
2022/04/15 01:47:45;;;;;;;;;12.50;11.00;;;;;17.75;92.00;102102.19;5055996;28;45362;-81
2022/04/15 01:50:11;;;;;;;;;11.25;10.75;;;;;17.79;92.70;102116.28;5056027;28;45468;-83
2022/04/15 01:52:36;;;;;;;;;13.00;10.50;;;;;17.72;93.14;102106.44;5056724;28;45397;-81
2022/04/15 01:55:02;;;;;;;;;10.75;9.75;;;;;17.71;93.80;102116.00;5055691;28;45979;-78
2022/04/15 01:57:28;;;;;;;;;8.50;8.50;;;;;17.65;94.18;102110.56;5056238;28;45804;-78
2022/04/15 01:59:54;;;;;;;;;11.75;10.75;;;;;17.61;94.44;102104.31;5056072;28;45296;-79
2022/04/15 02:02:19;;;;;;;;;15.00;12.00;;;;;17.60;95.06;102102.53;5055716;28;45498;-79
2022/04/15 02:04:45;;;;;;;;;9.00;9.00;;;;;17.56;95.62;102105.84;5055675;28;46089;-80
2022/04/15 02:07:10;;;;;;;;;12.50;11.75;;;;;17.56;95.92;102105.84;5055855;28;45539;-79
2022/04/15 02:09:36;;;;;;;;;4.75;4.75;;;;;17.52;95.83;102097.84;5056311;28;45593;-81
2022/04/15 02:12:02;;;;;;;;;15.00;13.25;;;;;17.51;95.92;102114.38;5037691;28;45605;-80
2022/04/15 02:14:27;;;;;;;;;16.25;15.00;;;;;17.36;97.07;102099.91;5055876;28;45857;-82
2022/04/15 02:16:54;;;;;;;;;12.75;12.75;;;;;17.36;98.48;102110.38;5055702;28;45452;-82
2022/04/15 02:19:20;;;;;;;;;13.25;13.25;;;;;17.28;98.40;102110.06;5055648;28;45400;-82
2022/04/15 02:21:46;;;;;;;;;14.75;13.00;;;;;17.30;98.12;102118.88;5056455;28;45605;-83
2022/04/15 02:24:12;;;;;;;;;9.75;8.50;;;;;17.27;98.98;102110.91;5055337;28;45335;-82
2022/04/15 02:26:38;;;;;;;;;16.00;14.50;;;;;17.27;99.16;102120.50;5055450;28;45852;-81
2022/04/15 02:29:03;;;;;;;;;13.00;12.25;;;;;17.23;99.66;102119.47;5055782;28;45329;-81
2022/04/15 02:31:29;;;;;;;;;14.75;14.75;;;;;17.15;99.38;102110.44;5056306;28;45598;-82
2022/04/15 02:33:55;;;;;;;;;16.50;13.25;;;;;17.17;100.00;102114.00;5055492;28;45308;-83
2022/04/15 02:36:20;;;;;;;;;12.75;12.50;;;;;17.05;99.73;102105.69;5055359;28;45393;-80
2022/04/15 02:38:46;;;;;;;;;16.75;14.00;;;;;17.05;100.00;102105.69;5055591;28;45225;-80
2022/04/15 02:41:13;;;;;;;;;16.75;14.00;;;;;17.01;100.00;102116.00;5055424;28;45410;-79
2022/04/15 02:43:39;;;;;;;;;16.25;14.25;;;;;16.98;100.00;102115.00;5055804;28;45419;-80
2022/04/15 02:46:08;;;;;;;;;13.25;11.50;;;;;16.96;100.00;102119.28;5055296;28;45813;-81
2022/04/15 02:48:34;;;;;;;;;15.75;15.00;;;;;16.91;100.00;102121.69;5055376;28;45368;-81
2022/04/15 02:51:01;;;;;;;;;16.00;13.75;;;;;16.87;100.00;102125.03;5056145;28;45560;-82
2022/04/15 02:53:27;;;;;;;;;15.25;12.75;;;;;16.80;100.00;102113.41;5037878;28;46804;-81
2022/04/15 02:55:53;;;;;;;;;14.75;13.25;;;;;16.82;100.00;102129.16;5055038;28;45392;-79
2022/04/15 02:58:20;;;;;;;;;13.00;13.00;;;;;16.79;100.00;102116.00;5055081;28;45257;-77
2022/04/15 03:00:46;;;;;;;;;14.50;13.25;;;;;16.77;100.00;102113.28;5055538;28;45364;-80
2022/04/15 03:03:12;;;;;;;;;12.00;12.00;;;;;16.80;100.00;102122.97;5054841;28;45336;-79
2022/04/15 03:05:41;;;;;;;;;14.50;13.25;;;;;16.71;100.00;102106.09;5055128;28;45319;-80
2022/04/15 03:08:08;;;;;;;;;13.25;12.50;;;;;16.75;100.00;102120.19;5054819;28;45334;-81
2022/04/15 03:10:34;;;;;;;;;19.75;14.50;;;;;16.70;100.00;102127.84;5055368;28;45706;-79
2022/04/15 03:12:59;;;;;;;;;13.25;12.75;;;;;16.70;100.00;102129.56;5055230;28;45597;-82
2022/04/15 03:15:25;;;;;;;;;12.75;12.50;;;;;16.65;100.00;102112.78;5058264;28;45371;-81
2022/04/15 03:17:51;;;;;;;;;15.50;13.25;;;;;16.71;100.00;102119.16;5058654;28;45328;-82
2022/04/15 03:20:17;;;;;;;;;13.50;10.75;;;;;16.70;100.00;102120.00;5040405;28;45267;-82
2022/04/15 03:22:44;;;;;;;;;14.00;14.00;;;;;16.69;100.00;102128.66;5058423;28;46378;-81
2022/04/15 03:25:13;;;;;;;;;17.25;14.00;;;;;16.67;100.00;102137.28;5058177;28;45752;-82
2022/04/15 03:27:38;;;;;;;;;13.50;12.75;;;;;16.67;100.00;102132.06;5058413;28;45394;-82
2022/04/15 03:30:05;;;;;;;;;14.50;12.75;;;;;16.62;100.00;102128.38;5058511;28;45406;-79
2022/04/15 03:32:31;;;;;;;;;12.75;11.75;;;;;16.56;100.00;102123.78;5058722;28;46501;-77
2022/04/15 03:34:57;;;;;;;;;14.75;11.75;;;;;16.57;100.00;102130.81;5058995;28;45905;-82
2022/04/15 03:37:23;;;;;;;;;11.50;10.25;;;;;16.54;100.00;102131.53;5059011;28;45233;-83
2022/04/15 03:39:49;;;;;;;;;16.25;14.25;;;;;16.56;100.00;102131.63;5058890;28;45183;-81
2022/04/15 03:42:14;;;;;;;;;13.25;12.25;;;;;16.56;100.00;102134.25;5057606;28;46372;-82
2022/04/15 03:44:40;;;;;;;;;12.75;12.75;;;;;16.53;100.00;102127.13;5057964;28;45285;-81
2022/04/15 03:47:07;;;;;;;;;14.00;12.75;;;;;16.48;100.00;102117.31;5057907;28;45215;-82
2022/04/15 03:49:33;;;;;;;;;13.25;13.25;;;;;16.48;100.00;102128.69;5058084;28;45383;-81
2022/04/15 03:51:59;;;;;;;;;12.50;12.00;;;;;16.47;100.00;102137.34;5058005;28;46483;-81
2022/04/15 03:54:25;;;;;;;;;12.75;11.25;;;;;16.47;100.00;102136.44;5057673;28;45782;-81
2022/04/15 03:56:51;;;;;;;;;14.00;14.00;;;;;16.49;100.00;102140.03;5057990;28;45363;-79
2022/04/15 03:59:17;;;;;;;;;12.25;12.00;;;;;16.48;100.00;102135.63;5058007;28;45301;-82
2022/04/15 04:01:43;;;;;;;;;12.50;11.75;;;;;16.45;100.00;102136.41;5057859;28;46150;-81
2022/04/15 04:04:09;;;;;;;;;11.75;11.75;;;;;16.47;100.00;102133.84;5057618;28;45228;-79
2022/04/15 04:06:34;;;;;;;;;13.50;11.75;;;;;16.41;100.00;102134.50;5057727;28;45253;-81
2022/04/15 04:09:01;;;;;;;;;10.00;10.00;;;;;16.33;100.00;102128.94;5058540;28;45760;-81
2022/04/15 04:11:26;;;;;;;;;15.00;12.75;;;;;16.36;100.00;102133.41;5057995;28;45504;-81
2022/04/15 04:13:52;;;;;;;;;11.75;11.00;;;;;16.35;100.00;102139.44;5057962;28;45373;-80
2022/04/15 04:16:18;;;;;;;;;12.25;11.25;;;;;16.35;100.00;102142.97;5057730;28;45469;-82
2022/04/15 04:18:44;;;;;;;;;14.50;12.00;;;;;16.33;100.00;102146.31;5057805;28;45530;-81
2022/04/15 04:21:11;;;;;;;;;12.75;11.25;;;;;16.30;100.00;102147.09;5057283;28;46169;-79
2022/04/15 04:23:37;;;;;;;;;11.00;10.50;;;;;16.27;100.00;102154.78;5057616;28;45449;-81
2022/04/15 04:26:04;;;;;;;;;13.75;11.75;;;;;16.24;100.00;102152.06;5057365;28;45283;-81
2022/04/15 04:28:30;;;;;;;;;11.75;11.75;;;;;16.20;100.00;102148.41;5058748;28;45396;-81
2022/04/15 04:30:56;;;;;;;;;12.50;11.50;;;;;16.21;100.00;102157.16;5058030;28;45298;-81
2022/04/15 04:33:22;;;;;;;;;15.25;12.75;;;;;16.14;100.00;102153.38;5057396;28;45423;-81
2022/04/15 04:35:48;;;;;;;;;14.75;13.25;;;;;16.18;100.00;102159.63;5057738;28;45296;-82
2022/04/15 04:38:14;;;;;;;;;14.75;14.00;;;;;16.16;100.00;102156.06;5057637;28;45462;-82
2022/04/15 04:40:40;;;;;;;;;20.25;15.00;;;;;16.14;100.00;102165.56;5057708;28;45491;-82
2022/04/15 04:43:07;;;;;;;;;13.00;11.00;;;;;16.11;100.00;102168.91;5039092;28;45479;-80
2022/04/15 04:45:33;;;;;;;;;16.50;13.25;;;;;16.05;100.00;102153.88;5039530;28;45264;-82
2022/04/15 04:48:03;;;;;;;;;14.75;13.50;;;;;16.08;100.00;102159.25;5058072;28;45217;-82
2022/04/15 04:50:29;;;;;;;;;12.25;11.75;;;;;16.07;100.00;102161.78;5057644;28;45371;-81
2022/04/15 04:52:55;;;;;;;;;13.75;13.75;;;;;16.03;100.00;102160.78;5057418;28;45765;-81
2022/04/15 04:55:21;;;;;;;;;13.75;12.75;;;;;15.99;100.00;102163.16;5058238;28;45376;-81
2022/04/15 04:57:47;;;;;;;;;9.75;9.75;;;;;15.91;100.00;102160.22;5057818;28;45328;-80
2022/04/15 05:00:14;;;;;;;;;15.50;15.50;;;;;16.01;100.00;102172.88;5055633;28;47275;-82
2022/04/15 05:02:40;;;;;;;;;10.75;10.75;;;;;16.01;100.00;102174.56;5059123;28;45787;-82
2022/04/15 05:05:07;;;;;;;;;13.75;13.75;;;;;15.98;100.00;102175.34;5057552;28;45394;-82
2022/04/15 05:07:33;;;;;;;;;12.25;12.25;;;;;16.00;100.00;102178.00;5057434;28;45332;-79
2022/04/15 05:09:59;;;;;;;;;13.75;12.25;;;;;15.96;100.00;102179.59;5057331;28;45383;-78
2022/04/15 05:12:24;;;;;;;;;16.25;13.50;;;;;15.96;100.00;102182.19;5056720;28;45374;-80
2022/04/15 05:14:50;;;;;;;;;12.25;11.75;;;;;15.89;100.00;102172.31;5057241;28;45347;-80
2022/04/15 05:17:16;;;;;;;;;13.50;13.50;;;;;15.98;100.00;102188.38;5057240;28;45287;-77
2022/04/15 05:19:42;;;;;;;;;11.75;11.75;;;;;15.97;100.00;102189.22;5038655;28;47805;-75
2022/04/15 05:22:09;;;;;;;;;15.25;12.50;;;;;15.92;100.00;102191.63;5038508;28;45391;-75
2022/04/15 05:24:34;;;;;;;;;13.00;11.50;;;;;15.91;100.00;102202.00;5056980;28;45357;-74
2022/04/15 05:27:00;;;;;;;;;11.00;10.75;;;;;15.88;100.00;102196.63;5057569;28;45470;-75
2022/04/15 05:29:26;;;;;;;;;12.75;11.75;;;;;15.81;100.00;102187.59;5038787;28;47645;-75
2022/04/15 05:31:52;;;;;;;;;13.00;11.25;;;;;15.82;100.00;102201.56;5056633;28;45521;-75
2022/04/15 05:34:17;;;;;;;;;16.00;12.50;;;;;15.80;100.00;102204.09;5056434;28;45482;-75
2022/04/15 05:36:43;;;;;;;;;13.50;13.50;;;;;15.75;100.00;102209.09;5056142;28;45329;-81
2022/04/15 05:39:09;;;;;;;;;14.00;14.00;;;;;15.67;100.00;102200.03;5056254;28;45736;-74
2022/04/15 05:41:34;;;;;;;;;11.75;11.50;;;;;15.68;100.00;102211.34;5056574;28;45315;-75
2022/04/15 05:44:03;;;;;;;;;18.50;16.00;;;;;15.59;100.00;102198.78;5056961;28;45258;-75
2022/04/15 05:46:32;;;;;;;;;15.50;14.00;;;;;15.65;100.00;102213.84;5057132;28;45570;-81
2022/04/15 05:48:58;;;;;;;;;14.25;14.25;;;;;15.56;100.00;102212.56;5056378;28;45992;-75
2022/04/15 05:51:26;;;;;;;;;15.25;13.75;;;;;15.58;100.00;102213.53;5056182;28;45394;-76
2022/04/15 05:53:52;;;;;;;;;16.25;13.75;;;;;15.58;100.00;102217.88;5056578;28;45304;-76
2022/04/15 05:56:18;;;;;;;;;16.00;14.75;;;;;15.56;100.00;102211.69;5038268;28;45330;-77
2022/04/15 05:58:43;;;;;;;;;17.25;15.50;;;;;15.53;100.00;102209.84;5054931;28;48046;-76
2022/04/15 06:01:09;;;;;;;;;13.75;13.25;;;;;15.56;100.00;102219.53;5055988;28;45225;-75
2022/04/15 06:03:37;;;;;;;;;18.50;18.00;;;;;15.48;100.00;102208.72;5056316;28;45237;-76
2022/04/15 06:06:03;;;;;;;;;17.50;16.00;;;;;15.51;100.00;102211.47;5056234;28;45589;-76
2022/04/15 06:08:29;;;;;;;;;13.75;13.75;;;;;15.56;100.00;102227.34;5056339;28;45995;-77
2022/04/15 06:10:55;;;;;;;;;15.25;12.75;;;;;15.55;100.00;102222.94;5056173;28;45524;-78
2022/04/15 06:13:22;;;;;;;;;18.25;13.50;;;;;15.52;100.00;102221.09;5056043;28;45285;-75
2022/04/15 06:15:51;;;;;;;;;13.25;12.50;;;;;15.48;100.00;102227.91;5056305;28;45585;-75
2022/04/15 06:18:18;;;;;;;;;12.75;12.25;;;;;15.47;100.00;102233.03;5055468;28;46625;-75
2022/04/15 06:20:45;;;;;;;;;17.00;16.00;;;;;15.47;100.00;102227.81;5055969;28;45419;-77
2022/04/15 06:23:11;;;;;;;;;14.25;11.50;;;;;15.47;100.00;102228.72;5056032;28;45450;-75
2022/04/15 06:25:37;;;;;;;;;14.50;13.00;;;;;15.46;100.00;102228.63;5056330;28;45489;-76
2022/04/15 06:28:03;;;;;;;;;13.25;13.25;;;;;15.46;100.00;102245.19;5055331;28;46007;-75
2022/04/15 06:30:28;;;;;;;;;13.75;12.00;;;;;15.39;100.00;102248.31;5055994;28;45335;-78
2022/04/15 06:32:54;;;;;;;;;12.50;11.00;;;;;15.42;100.00;102250.19;5056014;28;45249;-76
2022/04/15 06:35:19;;;;;;;;;20.00;15.75;;;;;15.35;100.00;102251.59;5038149;28;45237;-75
2022/04/15 06:37:45;;;;;;;;;18.50;14.75;;;;;15.40;100.00;102259.66;5055594;28;46228;-77
2022/04/15 06:40:11;;;;;;;;;16.00;13.25;;;;;15.38;100.00;102256.06;5055244;28;45367;-76
2022/04/15 06:42:37;;;;;;;;;16.75;13.75;;;;;15.42;100.00;102251.06;5055649;28;45392;-80
2022/04/15 06:45:04;;;;;;;;;15.50;15.00;;;;;15.43;100.00;102252.88;5037871;28;45292;-75
2022/04/15 06:47:29;;;;;;;;;16.75;16.50;;;;;15.43;100.00;102250.25;5056321;28;47444;-77
2022/04/15 06:49:55;;;;;;;;;17.00;17.00;;;;;15.50;100.00;102260.97;5059281;28;45431;-77
2022/04/15 06:52:21;;;;;;;;;16.50;16.00;;;;;15.46;100.00;102252.09;5058969;28;45509;-76
2022/04/15 06:54:47;;;;;;;;;16.75;16.25;;;;;15.54;100.00;102261.22;5059500;28;45218;-76
2022/04/15 06:57:13;;;;;;;;;18.50;16.25;;;;;15.55;100.00;102262.09;5058561;28;46401;-76
2022/04/15 06:59:39;;;;;;;;;21.25;17.00;;;;;15.56;100.00;102271.72;5058758;28;45425;-76
2022/04/15 07:02:05;;;;;;;;;17.25;15.25;;;;;15.57;100.00;102260.47;5058882;28;45193;-77
2022/04/15 07:04:34;;;;;;;;;14.50;14.25;;;;;15.57;100.00;102256.13;5059391;28;45499;-80
2022/04/15 07:07:00;;;;;;;;;16.75;16.25;;;;;15.60;100.00;102258.88;5040731;28;47941;-75
2022/04/15 07:09:27;;;;;;;;;17.00;16.00;;;;;15.67;100.00;102269.59;5059081;28;45326;-77
2022/04/15 07:11:53;;;;;;;;;18.00;16.00;;;;;15.67;100.00;102256.56;5059142;28;45288;-77
2022/04/15 07:14:19;;;;;;;;;19.00;18.50;;;;;15.65;100.00;102264.31;5040692;28;45625;-76
2022/04/15 07:16:45;;;;;;;;;20.00;16.00;;;;;15.67;100.00;102270.53;5058756;28;45894;-77
2022/04/15 07:19:11;;;;;;;;;14.50;13.25;;;;;15.63;100.00;102264.28;5058497;28;45857;-77
2022/04/15 07:21:38;;;;;;;;;22.00;17.50;;;;;15.71;100.00;102272.44;5058618;28;45377;-77
2022/04/15 07:24:04;;;;;;;;;17.75;15.50;;;;;15.68;100.00;102274.94;5058507;28;45462;-75
2022/04/15 07:26:30;;;;;;;;;17.50;17.50;;;;;15.72;100.00;102274.22;5058711;28;47076;-76
2022/04/15 07:28:56;;;;;;;;;20.00;18.75;;;;;15.76;100.00;102276.19;5058860;28;45405;-76
2022/04/15 07:31:22;;;;;;;;;17.75;16.25;;;;;15.77;100.00;102274.44;5058439;28;45495;-75
2022/04/15 07:33:48;;;;;;;;;14.50;12.75;;;;;15.80;100.00;102282.44;5074286;28;45385;-78
2022/04/15 07:38:58;;;;;;;;;20.25;19.50;;;;;15.86;100.00;102280.16;5058906;28;45688;-76
2022/04/15 07:41:24;;;;;;;;;16.00;15.50;;;;;15.91;100.00;102280.38;5058303;28;45243;-76
2022/04/15 07:43:50;;;;;;;;;17.00;15.50;;;;;15.96;100.00;102278.84;5058530;28;45372;-76
2022/04/15 07:46:16;;;;;;;;;18.00;14.75;;;;;15.98;100.00;102268.50;5057848;28;46253;-76
2022/04/15 07:48:42;;;;;;;;;17.50;16.50;;;;;16.05;100.00;102278.38;5058124;28;45510;-77
2022/04/15 07:51:09;;;;;;;;;14.75;13.00;;;;;15.96;100.00;102255.34;5058325;28;45363;-77
2022/04/15 07:53:35;;;;;;;;;17.50;15.50;;;;;16.06;100.00;102274.97;5058451;28;45370;-76
2022/04/15 07:56:01;;;;;;;;;12.50;12.50;;;;;16.03;100.00;102264.34;5058715;28;46050;-76
2022/04/15 07:58:27;;;;;;;;;14.00;13.50;;;;;16.17;100.00;102284.19;5058802;28;45326;-79
2022/04/15 08:00:53;;;;;;;;;16.75;14.00;;;;;16.18;100.00;102285.97;5057670;28;45190;-75
2022/04/15 08:03:20;;;;;;;;;19.75;15.50;;;;;16.17;100.00;102278.94;5058299;28;45499;-76
2022/04/15 08:05:47;;;;;;;;;18.00;16.25;;;;;16.28;100.00;102284.66;5057892;28;46212;-78
2022/04/15 08:08:13;;;;;;;;;13.75;12.75;;;;;16.35;100.00;102293.66;5057744;28;45297;-76
2022/04/15 08:10:38;;;;;;;;;19.00;16.50;;;;;16.38;100.00;102285.97;5058158;28;45364;-79
2022/04/15 08:13:04;;;;;;;;;19.50;16.50;;;;;16.45;100.00;102282.78;5058011;28;45516;-76
2022/04/15 08:15:30;;;;;;;;;15.75;14.25;;;;;16.44;100.00;102269.66;5058280;28;46057;-80
2022/04/15 08:17:56;;;;;;;;;17.50;12.75;;;;;16.51;100.00;102277.84;5060650;28;45365;-77
2022/04/15 08:20:22;;;;;;;;;13.75;12.25;;;;;16.59;100.00;102285.13;5058663;28;45377;-79
2022/04/15 08:22:47;;;;;;;;;17.00;14.00;;;;;16.58;100.00;102272.88;5058696;28;45570;-78
2022/04/15 08:25:13;;;;;;;;;13.25;11.25;;;;;16.67;100.00;102279.41;5057729;28;45656;-79
2022/04/15 08:27:38;;;;;;;;;18.50;16.25;;;;;16.73;100.00;102286.63;5057826;28;45241;-79
2022/04/15 08:30:04;;;;;;;;;15.00;14.75;;;;;16.73;100.00;102280.50;5057316;28;45348;-76
2022/04/15 08:32:33;;;;;;;;;16.75;15.75;;;;;16.76;100.00;102284.13;5058214;28;45406;-75
2022/04/15 08:35:06;;;;;;;;;21.50;18.75;;;;;16.82;100.00;102286.09;5057681;28;45416;-76
2022/04/15 08:37:33;;;;;;;;;15.50;14.75;;;;;16.88;100.00;102286.38;5057523;28;45254;-76
2022/04/15 08:39:59;;;;;;;;;20.00;17.25;;;;;16.89;100.00;102280.34;5059136;28;45541;-78
2022/04/15 08:42:25;;;;;;;;;15.00;15.00;;;;;16.91;100.00;102275.16;5060124;28;45373;-78
2022/04/15 08:44:51;;;;;;;;;21.00;17.25;;;;;16.96;100.00;102277.16;5058105;28;46152;-79
2022/04/15 08:47:17;;;;;;;;;19.00;17.00;;;;;16.87;100.00;102259.31;5057347;28;45867;-76
2022/04/15 08:49:43;;;;;;;;;14.75;14.75;;;;;17.12;100.00;102288.25;5057885;28;45195;-77
2022/04/15 08:52:10;;;;;;;;;17.00;16.00;;;;;17.17;100.00;102279.75;5058351;28;45210;-81
2022/04/15 08:54:36;;;;;;;;;15.75;14.50;;;;;17.21;100.00;102279.91;5057979;28;45511;-80
2022/04/15 08:57:03;;;;;;;;;17.75;16.50;;;;;17.23;98.98;102273.00;5056946;28;45329;-77
2022/04/15 08:59:28;;;;;;;;;17.75;15.75;;;;;17.33;98.88;102286.53;5057755;28;45438;-83
2022/04/15 09:01:54;;;;;;;;;16.50;14.00;;;;;17.29;98.50;102275.88;5039500;28;45544;-78
2022/04/15 09:04:20;;;;;;;;;15.00;14.75;;;;;17.29;98.34;102265.41;5056925;28;45320;-81
2022/04/15 09:06:45;;;;;;;;;19.50;19.50;;;;;17.43;97.11;102284.31;5057184;28;45402;-76
2022/04/15 09:09:12;;;;;;;;;14.75;14.75;;;;;17.43;96.95;102271.22;5058766;28;45340;-77
2022/04/15 09:11:40;;;;;;;;;17.00;12.25;;;;;17.54;96.17;102275.16;5057145;28;45166;-76
2022/04/15 09:14:13;;;;;;;;;15.25;14.00;;;;;17.60;95.43;102270.13;5057044;28;46271;-80
2022/04/15 09:16:43;;;;;;;;;9.25;8.25;;;;;17.62;94.30;102272.81;5057109;28;45622;-80
2022/04/15 09:19:10;;;;;;;;;6.00;5.00;;;;;17.72;93.35;102274.06;5056868;28;45374;-78
2022/04/15 09:21:39;;;;;;;;;7.00;7.00;;;;;17.73;92.62;102274.13;5057140;28;45547;-79
2022/04/15 09:24:05;;;;;;;;;5.75;5.25;;;;;17.83;92.01;102282.34;5056505;28;46380;-76
2022/04/15 09:26:30;;;;;;;;;6.00;5.25;;;;;17.87;92.28;102279.00;5057824;28;45950;-76
2022/04/15 09:28:56;;;;;;;;;5.50;4.50;;;;;17.91;91.93;102286.16;5060085;28;45211;-77
2022/04/15 09:31:23;;;;;;;;;6.75;5.25;;;;;17.89;91.33;102272.97;5058472;28;45241;-82
2022/04/15 09:34:00;;;;;;;;;5.75;5.00;;;;;17.84;90.58;102266.69;5059159;28;45296;-78
2022/04/15 09:36:37;;;;;;;;;5.00;5.00;;;;;17.98;89.45;102277.72;5063009;28;45395;-81
2022/04/15 09:39:14;;;;;;;;;4.00;4.00;;;;;18.04;88.87;102282.31;5040194;28;45308;-76
2022/04/15 09:41:48;;;;;;;;;2.00;2.00;;;;;18.04;85.05;102277.06;5058346;28;45209;-76
2022/04/15 09:44:13;;;;;;;;;3.75;2.00;;;;;18.03;84.05;102262.16;5056608;28;45694;-78
2022/04/15 09:46:44;;;;;;;;;3.75;3.00;;;;;18.13;84.81;102273.91;5056759;28;45233;-76
2022/04/15 09:49:10;;;;;;;;;3.00;3.00;;;;;18.16;84.07;102280.16;5056046;28;45348;-78
2022/04/15 09:51:48;;;;;;;;;2.00;2.00;;;;;18.20;83.46;102276.78;5056944;28;45416;-82
2022/04/15 09:54:25;;;;;;;;;1.00;1.00;;;;;18.28;78.03;102276.19;5056327;28;45989;-86
2022/04/15 09:56:59;;;;;;;;;3.50;2.00;;;;;18.25;79.32;102274.31;5056967;28;45257;-77
2022/04/15 09:59:27;;;;;;;;;1.00;1.00;;;;;18.25;76.45;102272.63;5056442;28;45279;-77
2022/04/15 10:02:04;;;;;;;;;1.00;1.00;;;;;18.27;77.88;102274.41;5057098;28;45385;-76
2022/04/15 10:04:31;;;;;;;;;1.00;0.50;;;;;18.29;74.19;102271.00;5074974;28;46121;-76
2022/04/15 10:07:00;;;;;;;;;2.00;1.00;;;;;18.27;74.32;102266.53;5059120;28;45336;-77
2022/04/15 10:09:26;;;;;;;;;2.25;2.00;;;;;18.33;74.46;102272.00;5057616;28;45395;-76
2022/04/15 10:11:52;;;;;;;;;3.25;2.00;;;;;18.30;73.30;102261.41;5057084;28;45646;-76
2022/04/15 10:14:21;;;;;;;;;0.75;0.75;;;;;18.36;73.38;102272.13;5056091;28;45459;-78
2022/04/15 10:16:46;;;;;;;;;1.50;1.50;;;;;18.39;73.43;102272.22;5056251;28;45473;-77
2022/04/15 10:19:13;;;;;;;;;1.00;1.00;;;;;18.41;73.53;102274.06;5056410;28;45304;-77
2022/04/15 10:21:46;;;;;;;;;2.00;0.25;;;;;18.44;69.94;102270.66;5060897;28;45245;-78
2022/04/15 10:24:13;;;;;;;;;1.50;1.00;;;;;18.38;71.59;102268.69;5058097;28;46274;-78
2022/04/15 10:26:49;;;;;;;;;1.75;1.75;;;;;18.40;70.54;102263.53;5056255;28;45618;-78
2022/04/15 10:29:14;;;;;;;;;1.50;1.50;;;;;18.45;69.98;102269.81;5055890;28;45343;-79
2022/04/15 10:31:54;;;;;;;;;1.00;1.00;;;;;18.39;69.62;102260.00;5038221;28;45321;-82
2022/04/15 10:34:21;;;;;;;;;0.50;0.50;;;;;18.44;69.95;102261.91;5055770;28;46590;-79
2022/04/15 10:36:56;;;;;;;;;3.75;2.00;;;;;18.47;68.47;102260.28;5038157;28;45696;-77
2022/04/15 10:39:23;;;;;;;;;3.00;1.00;;;;;18.50;68.76;102249.00;5056455;28;45457;-76
2022/04/15 10:41:51;;;;;;;;;2.25;1.25;;;;;18.56;69.05;102263.22;5038265;28;45291;-81
2022/04/15 10:44:28;;;;;;;;;1.00;1.00;;;;;18.62;69.39;102257.28;5037391;28;47755;-82
2022/04/15 10:47:03;;;;;;;;;2.75;2.00;;;;;18.69;69.89;102254.03;5055788;28;45273;-82
2022/04/15 10:49:30;;;;;;;;;1.50;1.25;;;;;18.72;68.43;102242.78;5056253;28;45407;-80
2022/04/15 10:52:21;;;;;;;;;3.00;1.75;;;;;18.87;69.29;102251.16;5056499;28;45491;-82
2022/04/15 10:54:48;;;;;;;;;2.00;1.75;;;;;18.91;66.86;102251.25;5055375;28;45534;-76
2022/04/15 10:57:22;;;;;;;;;1.25;1.25;;;;;18.95;67.56;102250.56;5037202;28;45836;-80
2022/04/15 11:02:49;;;;;;;;;1.00;1.00;;;;;19.02;66.43;102247.31;5055757;28;45291;-76
2022/04/15 11:05:43;;;;;;;;;1.75;1.75;;;;;19.12;66.34;102246.75;5055214;28;46434;-78
2022/04/15 11:08:13;;;;;;;;;4.50;3.50;;;;;19.11;65.60;102252.84;5054987;28;45236;-78
2022/04/15 11:10:40;;;;;;;;;2.00;2.00;;;;;19.14;66.70;102249.41;5056017;28;45440;-78
2022/04/15 11:13:07;;;;;;;;;2.25;2.00;;;;;19.12;65.26;102236.25;5056275;28;45280;-81